createdAt,value
2018-11-29T00:00:32.039Z,-0.70
2018-11-29T00:03:01.948Z,-0.70
2018-11-29T00:05:31.488Z,-0.70
2018-11-29T00:08:01.203Z,-0.70
2018-11-29T00:10:30.800Z,-0.70
2018-11-29T00:13:00.499Z,-0.80
2018-11-29T00:15:30.068Z,-0.70
2018-11-29T00:17:59.570Z,-0.70
2018-11-29T00:20:29.346Z,-0.70
2018-11-29T00:22:58.977Z,-0.80
2018-11-29T00:25:28.577Z,-0.80
2018-11-29T00:27:58.405Z,-0.90
2018-11-29T00:30:28.469Z,-0.90
2018-11-29T00:32:57.997Z,-0.90
2018-11-29T00:35:27.705Z,-0.80
2018-11-29T00:37:57.299Z,-0.70
2018-11-29T00:40:27.093Z,-0.80
2018-11-29T00:42:56.775Z,-0.80
2018-11-29T00:45:26.236Z,-0.80
2018-11-29T00:47:55.768Z,-0.80
2018-11-29T00:50:25.342Z,-0.90
2018-11-29T00:52:54.898Z,-0.80
2018-11-29T00:55:24.659Z,-0.90
2018-11-29T00:57:54.602Z,-0.90
2018-11-29T01:00:25.270Z,-0.90
2018-11-29T01:02:54.910Z,-0.90
2018-11-29T01:05:24.564Z,-0.80
2018-11-29T01:07:54.268Z,-0.90
2018-11-29T01:10:23.925Z,-0.90
2018-11-29T01:12:53.432Z,-0.80
2018-11-29T01:15:23.016Z,-0.80
2018-11-29T01:17:52.534Z,-0.90
2018-11-29T01:20:22.583Z,-0.90
2018-11-29T01:22:52.288Z,-0.90
2018-11-29T01:25:21.963Z,-0.90
2018-11-29T01:27:51.661Z,-0.90
2018-11-29T01:30:21.819Z,-1.00
2018-11-29T01:32:51.785Z,-1.00
2018-11-29T01:35:21.663Z,-1.00
2018-11-29T01:37:51.030Z,-1.00
2018-11-29T01:40:24.462Z,-1.00
2018-11-29T01:42:56.668Z,-1.00
2018-11-29T01:45:26.535Z,-0.90
2018-11-29T01:47:56.250Z,-0.90
2018-11-29T01:50:25.682Z,-1.00
2018-11-29T01:52:55.235Z,-0.90
2018-11-29T01:55:24.783Z,-0.90
2018-11-29T01:57:54.321Z,-0.90
2018-11-29T02:00:23.862Z,-0.90
2018-11-29T02:02:53.690Z,-0.90
2018-11-29T02:05:23.138Z,-0.90
2018-11-29T02:07:54.072Z,-0.90
2018-11-29T02:10:27.126Z,-0.90
2018-11-29T02:12:56.731Z,-1.00
2018-11-29T02:15:26.441Z,-0.90
2018-11-29T02:17:55.728Z,-1.00
2018-11-29T02:20:25.430Z,-0.90
2018-11-29T02:22:54.988Z,-0.90
2018-11-29T02:25:24.599Z,-0.90
2018-11-29T02:27:54.474Z,-0.80
2018-11-29T02:30:24.229Z,-0.90
2018-11-29T02:32:53.856Z,-0.80
2018-11-29T02:35:24.225Z,-0.80
2018-11-29T02:37:56.116Z,-0.80
2018-11-29T02:40:28.383Z,-0.80
2018-11-29T02:42:58.391Z,-0.80
2018-11-29T02:45:27.905Z,-0.70
2018-11-29T02:47:57.879Z,-0.70
2018-11-29T02:50:29.379Z,-0.70
2018-11-29T02:52:57.576Z,-0.70
2018-11-29T02:55:27.742Z,-0.70
2018-11-29T02:57:58.309Z,-0.80
2018-11-29T03:00:28.192Z,-0.70
2018-11-29T03:02:57.609Z,-0.70
2018-11-29T03:05:29.201Z,-0.70
2018-11-29T03:07:58.808Z,-0.70
2018-11-29T03:10:28.260Z,-0.70
2018-11-29T03:12:57.894Z,-0.70
2018-11-29T03:15:27.810Z,-0.70
2018-11-29T03:17:57.381Z,-0.70
2018-11-29T03:20:30.017Z,-0.70
2018-11-29T03:23:01.670Z,-0.70
2018-11-29T03:25:31.568Z,-0.70
2018-11-29T03:28:01.557Z,-0.80
2018-11-29T03:30:30.998Z,-0.80
2018-11-29T03:33:05.670Z,-0.70
2018-11-29T03:35:44.591Z,-0.80
2018-11-29T03:38:12.911Z,-0.70
2018-11-29T03:40:43.206Z,-0.80
2018-11-29T03:43:12.970Z,-0.80
2018-11-29T03:45:47.094Z,-0.80
2018-11-29T03:48:27.900Z,-0.80
2018-11-29T03:51:13.928Z,-0.80
2018-11-29T03:53:43.615Z,-0.70
2018-11-29T03:56:14.029Z,-0.80
2018-11-29T03:59:07.557Z,-0.80
2018-11-29T04:01:37.357Z,-0.80
2018-11-29T04:04:06.659Z,-0.80
2018-11-29T04:06:36.738Z,-0.80
2018-11-29T04:09:13.547Z,-0.80
2018-11-29T04:11:43.514Z,-0.80
2018-11-29T04:14:13.567Z,-0.80
2018-11-29T04:16:43.740Z,-0.80
2018-11-29T04:19:13.562Z,-0.80
2018-11-29T04:21:43.031Z,-0.80
2018-11-29T04:24:12.491Z,-0.80
2018-11-29T04:26:42.485Z,-0.80
2018-11-29T04:29:12.297Z,-0.80
2018-11-29T04:31:41.581Z,-0.80
2018-11-29T04:34:10.861Z,-0.90
2018-11-29T04:36:40.888Z,-0.90
2018-11-29T04:39:10.901Z,-0.90
2018-11-29T04:41:39.907Z,-1.00
2018-11-29T04:44:09.439Z,-1.00
2018-11-29T04:46:47.357Z,-1.00
2018-11-29T04:49:17.000Z,-1.10
2018-11-29T04:51:47.498Z,-1.10
2018-11-29T04:54:16.849Z,-1.20
2018-11-29T04:56:49.089Z,-1.30
2018-11-29T04:59:24.400Z,-1.30
2018-11-29T05:01:53.942Z,-1.30
2018-11-29T05:04:23.689Z,-1.30
2018-11-29T05:06:54.332Z,-1.40
2018-11-29T05:09:23.818Z,-1.40
2018-11-29T05:11:53.286Z,-1.40
2018-11-29T05:14:25.348Z,-1.40
2018-11-29T05:16:54.844Z,-1.50
2018-11-29T05:19:24.502Z,-1.50
2018-11-29T05:21:54.025Z,-1.50
2018-11-29T05:24:24.945Z,-1.60
2018-11-29T05:26:54.633Z,-1.60
2018-11-29T05:29:24.206Z,-1.70
2018-11-29T05:31:53.830Z,-1.70
2018-11-29T05:34:23.917Z,-1.70
2018-11-29T05:36:53.831Z,-1.70
2018-11-29T05:39:23.242Z,-1.70
2018-11-29T05:41:52.882Z,-1.80
2018-11-29T05:44:22.123Z,-1.80
2018-11-29T05:46:51.687Z,-1.80
2018-11-29T05:49:21.077Z,-1.80
2018-11-29T05:51:51.450Z,-1.80
2018-11-29T05:54:20.738Z,-1.80
2018-11-29T05:56:50.445Z,-1.70
2018-11-29T05:59:19.755Z,-1.80
2018-11-29T06:01:49.863Z,-1.70
2018-11-29T06:04:19.158Z,-1.60
2018-11-29T06:06:48.536Z,-1.70
2018-11-29T06:09:18.085Z,-1.70
2018-11-29T06:11:47.341Z,-1.60
2018-11-29T06:14:16.874Z,-1.60
2018-11-29T06:16:46.368Z,-1.60
2018-11-29T06:19:15.741Z,-1.60
2018-11-29T06:21:45.172Z,-1.60
2018-11-29T06:24:14.638Z,-1.60
2018-11-29T06:26:44.201Z,-1.60
2018-11-29T06:29:13.581Z,-1.70
2018-11-29T06:31:42.841Z,-1.70
2018-11-29T06:34:12.338Z,-1.70
2018-11-29T06:36:42.074Z,-1.60
2018-11-29T06:39:11.637Z,-1.60
2018-11-29T06:41:41.558Z,-1.50
2018-11-29T06:44:10.898Z,-1.50
2018-11-29T06:46:40.287Z,-1.40
2018-11-29T06:49:09.511Z,-1.40
2018-11-29T06:51:38.760Z,-1.30
2018-11-29T06:54:08.475Z,-1.30
2018-11-29T06:56:37.927Z,-1.20
2018-11-29T06:59:07.549Z,-1.20
2018-11-29T07:01:37.046Z,-1.10
2018-11-29T07:04:06.563Z,-1.00
2018-11-29T07:06:35.803Z,-1.00
2018-11-29T07:09:06.955Z,-1.00
2018-11-29T07:11:36.255Z,-0.90
2018-11-29T07:14:05.659Z,-0.90
2018-11-29T07:16:35.084Z,-0.90
2018-11-29T07:19:04.298Z,-0.90
2018-11-29T07:21:54.869Z,-0.80
2018-11-29T07:24:25.127Z,-0.80
2018-11-29T07:26:54.338Z,-0.80
2018-11-29T07:29:23.879Z,-0.80
2018-11-29T07:31:53.801Z,-0.90
2018-11-29T07:34:23.254Z,-0.90
2018-11-29T07:36:54.699Z,-0.90
2018-11-29T07:39:24.139Z,-0.90
2018-11-29T07:41:54.846Z,-0.90
2018-11-29T07:44:24.202Z,-0.90
2018-11-29T07:46:53.609Z,-0.80
2018-11-29T07:49:23.122Z,-0.80
2018-11-29T07:51:52.480Z,-0.80
2018-11-29T07:54:21.997Z,-0.80
2018-11-29T07:56:51.356Z,-0.80
2018-11-29T07:59:20.788Z,-0.80
2018-11-29T08:01:50.010Z,-0.70
2018-11-29T08:04:19.265Z,-0.70
2018-11-29T08:06:49.122Z,-0.60
2018-11-29T08:09:18.670Z,-0.50
2018-11-29T08:11:48.232Z,-0.10
2018-11-29T08:14:17.772Z,0.00
2018-11-29T08:16:47.088Z,-0.10
2018-11-29T08:19:16.489Z,-0.10
2018-11-29T08:21:45.810Z,0.10
2018-11-29T08:24:15.726Z,0.40
2018-11-29T08:26:45.331Z,0.50
2018-11-29T08:29:14.658Z,0.70
2018-11-29T08:31:44.330Z,0.90
2018-11-29T08:34:13.749Z,1.10
2018-11-29T08:36:43.575Z,1.40
2018-11-29T08:39:13.069Z,2.40
2018-11-29T08:41:42.174Z,3.20
2018-11-29T08:44:11.507Z,3.10
2018-11-29T08:46:40.997Z,2.80
2018-11-29T08:49:41.395Z,2.70
2018-11-29T08:52:10.808Z,2.50
2018-11-29T08:54:40.157Z,2.40
2018-11-29T08:57:09.573Z,2.60
2018-11-29T08:59:39.414Z,2.60
2018-11-29T09:02:08.085Z,2.80
2018-11-29T09:04:37.520Z,2.70
2018-11-29T09:07:06.960Z,2.40
2018-11-29T09:09:36.498Z,2.40
2018-11-29T09:12:06.095Z,2.20
2018-11-29T09:14:35.085Z,2.10
2018-11-29T09:17:04.123Z,2.20
2018-11-29T09:19:37.430Z,2.50
2018-11-29T09:22:02.787Z,2.80
2018-11-29T09:24:32.132Z,3.00
2018-11-29T09:27:01.502Z,3.00
2018-11-29T09:29:30.814Z,2.70
2018-11-29T09:32:00.183Z,3.10
2018-11-29T09:34:29.499Z,3.40
2018-11-29T09:36:59.296Z,3.50
2018-11-29T09:39:28.646Z,3.50
2018-11-29T09:41:58.088Z,3.30
2018-11-29T09:44:27.564Z,3.00
2018-11-29T09:46:57.910Z,2.70
2018-11-29T09:49:27.391Z,2.80
2018-11-29T09:51:56.995Z,3.00
2018-11-29T09:54:26.665Z,3.40
2018-11-29T09:56:56.201Z,3.40
2018-11-29T09:59:26.085Z,3.20
2018-11-29T10:01:55.265Z,3.20
2018-11-29T10:04:24.602Z,3.30
2018-11-29T10:06:54.115Z,3.40
2018-11-29T10:09:23.390Z,3.60
2018-11-29T10:11:52.888Z,3.70
2018-11-29T10:14:22.374Z,4.00
2018-11-29T10:16:52.002Z,3.80
2018-11-29T10:19:21.512Z,3.80
2018-11-29T10:21:50.855Z,3.90
2018-11-29T10:24:19.977Z,4.10
2018-11-29T10:26:49.926Z,4.30
2018-11-29T10:29:19.487Z,4.30
2018-11-29T10:31:48.767Z,4.40
2018-11-29T10:34:18.851Z,4.40
2018-11-29T10:36:48.722Z,4.60
2018-11-29T10:39:18.312Z,4.60
2018-11-29T10:41:47.870Z,4.50
2018-11-29T10:44:17.579Z,4.80
2018-11-29T10:46:47.294Z,5.10
2018-11-29T10:49:16.940Z,5.30
2018-11-29T10:51:46.472Z,5.30
2018-11-29T10:54:16.843Z,5.40
2018-11-29T10:56:45.685Z,5.40
2018-11-29T10:59:15.268Z,5.70
2018-11-29T11:01:45.022Z,5.90
2018-11-29T11:04:14.134Z,6.10
2018-11-29T11:06:44.323Z,6.40
2018-11-29T11:09:13.603Z,6.50
2018-11-29T11:11:43.905Z,6.60
2018-11-29T11:14:13.389Z,6.50
2018-11-29T11:16:42.750Z,6.30
2018-11-29T11:19:12.108Z,6.00
2018-11-29T11:21:41.492Z,6.00
2018-11-29T11:24:10.926Z,5.80
2018-11-29T11:26:40.548Z,6.10
2018-11-29T11:29:10.169Z,6.40
2018-11-29T11:31:39.613Z,6.30
2018-11-29T11:34:09.125Z,6.40
2018-11-29T11:36:38.413Z,6.40
2018-11-29T11:39:08.652Z,6.50
2018-11-29T11:41:38.061Z,7.40
2018-11-29T11:44:07.621Z,7.80
2018-11-29T11:46:37.071Z,7.70
2018-11-29T11:49:06.653Z,7.30
2018-11-29T11:51:35.918Z,7.30
2018-11-29T11:54:05.792Z,7.10
2018-11-29T11:56:35.358Z,7.40
2018-11-29T11:59:04.898Z,7.40
2018-11-29T12:01:34.108Z,7.30
2018-11-29T12:04:03.576Z,7.50
2018-11-29T12:06:33.232Z,7.30
2018-11-29T12:09:02.646Z,7.00
2018-11-29T12:11:31.936Z,6.70
2018-11-29T12:14:01.856Z,7.00
2018-11-29T12:16:31.403Z,7.20
2018-11-29T12:19:02.396Z,7.30
2018-11-29T12:21:30.040Z,7.30
2018-11-29T12:23:59.330Z,7.30
2018-11-29T12:26:29.083Z,7.30
2018-11-29T12:28:58.433Z,7.40
2018-11-29T12:31:28.286Z,7.40
2018-11-29T12:33:57.608Z,6.90
2018-11-29T12:36:26.750Z,6.70
2018-11-29T12:38:56.183Z,6.60
2018-11-29T12:41:25.600Z,6.40
2018-11-29T12:43:54.899Z,6.10
2018-11-29T12:46:24.411Z,6.00
2018-11-29T12:48:55.940Z,5.90
2018-11-29T12:51:25.163Z,5.80
2018-11-29T12:53:54.567Z,5.90
2018-11-29T12:56:23.919Z,6.00
2018-11-29T12:58:53.320Z,5.80
2018-11-29T13:01:22.872Z,5.80
2018-11-29T13:03:52.435Z,5.80
2018-11-29T13:06:21.962Z,5.80
2018-11-29T13:09:00.319Z,5.80
2018-11-29T13:11:29.945Z,5.70
2018-11-29T13:13:59.502Z,5.60
2018-11-29T13:16:29.122Z,5.60
2018-11-29T13:18:58.632Z,5.70
2018-11-29T13:21:27.990Z,5.70
2018-11-29T13:24:00.268Z,5.60
2018-11-29T13:26:26.775Z,5.60
2018-11-29T13:28:56.179Z,5.60
2018-11-29T13:31:25.772Z,5.60
2018-11-29T13:33:55.149Z,5.70
2018-11-29T13:36:24.586Z,5.60
2018-11-29T13:38:54.148Z,5.50
2018-11-29T13:41:24.552Z,5.50
2018-11-29T13:43:54.106Z,5.50
2018-11-29T13:46:23.906Z,5.40
2018-11-29T13:48:53.608Z,5.30
2018-11-29T13:51:23.057Z,5.20
2018-11-29T13:53:52.428Z,5.10
2018-11-29T13:56:21.837Z,5.00
2018-11-29T13:58:51.289Z,5.10
2018-11-29T14:01:20.713Z,5.00
2018-11-29T14:03:50.168Z,4.90
2018-11-29T14:06:20.008Z,4.90
2018-11-29T14:08:49.935Z,4.90
2018-11-29T14:11:19.216Z,4.90
2018-11-29T14:13:48.712Z,4.80
2018-11-29T14:16:18.180Z,4.80
2018-11-29T14:18:48.003Z,4.70
2018-11-29T14:21:17.289Z,4.70
2018-11-29T14:23:46.737Z,4.60
2018-11-29T14:26:16.613Z,4.50
2018-11-29T14:28:46.180Z,4.50
2018-11-29T14:31:15.628Z,4.40
2018-11-29T14:33:45.110Z,4.40
2018-11-29T14:36:14.854Z,4.30
2018-11-29T14:38:44.622Z,4.30
2018-11-29T14:41:13.946Z,4.20
2018-11-29T14:43:43.595Z,4.10
2018-11-29T14:46:13.114Z,4.10
2018-11-29T14:48:42.608Z,4.10
2018-11-29T14:51:12.242Z,4.00
2018-11-29T14:53:42.162Z,3.90
2018-11-29T14:56:11.659Z,3.90
2018-11-29T14:58:41.162Z,3.80
2018-11-29T15:01:10.823Z,3.80
2018-11-29T15:03:40.472Z,3.70
2018-11-29T15:06:09.823Z,3.60
2018-11-29T15:08:39.389Z,3.60
2018-11-29T15:11:08.935Z,3.50
2018-11-29T15:13:38.699Z,3.50
2018-11-29T15:16:08.158Z,3.40
2018-11-29T15:18:37.750Z,3.30
2018-11-29T15:21:07.480Z,3.30
2018-11-29T15:23:36.947Z,3.30
2018-11-29T15:26:06.263Z,3.30
2018-11-29T15:28:35.875Z,3.20
2018-11-29T15:31:05.719Z,3.20
2018-11-29T15:33:34.898Z,3.20
2018-11-29T15:36:04.022Z,3.10
2018-11-29T15:38:33.060Z,3.00
2018-11-29T15:41:02.592Z,2.90
2018-11-29T15:43:32.034Z,2.90
2018-11-29T15:46:01.714Z,2.90
2018-11-29T15:48:31.328Z,2.80
2018-11-29T15:51:00.953Z,2.70
2018-11-29T15:53:30.517Z,2.70
2018-11-29T15:55:59.924Z,2.70
2018-11-29T15:58:29.364Z,2.70
2018-11-29T16:00:58.654Z,2.60
2018-11-29T16:03:28.563Z,2.50
2018-11-29T16:05:57.827Z,2.50
2018-11-29T16:08:27.371Z,2.50
2018-11-29T16:10:56.639Z,2.50
2018-11-29T16:13:26.068Z,2.50
2018-11-29T16:15:55.466Z,2.50
2018-11-29T16:18:24.895Z,2.40
2018-11-29T16:20:54.403Z,2.40
2018-11-29T16:23:23.898Z,2.30
2018-11-29T16:25:53.563Z,2.20
2018-11-29T16:28:24.426Z,2.10
2018-11-29T16:30:56.703Z,2.20
2018-11-29T16:33:30.379Z,2.20
2018-11-29T16:35:59.952Z,2.10
2018-11-29T16:38:29.422Z,2.10
2018-11-29T16:40:59.151Z,2.10
2018-11-29T16:43:28.452Z,2.20
2018-11-29T16:45:57.889Z,2.20
2018-11-29T16:48:27.275Z,2.20
2018-11-29T16:50:56.747Z,2.20
2018-11-29T16:53:26.204Z,2.30
2018-11-29T16:55:55.358Z,2.30
2018-11-29T16:58:26.595Z,2.30
2018-11-29T17:00:55.925Z,2.30
2018-11-29T17:03:26.150Z,2.30
2018-11-29T17:05:55.623Z,2.30
2018-11-29T17:08:25.115Z,2.30
2018-11-29T17:10:54.477Z,2.30
2018-11-29T17:13:23.728Z,2.40
2018-11-29T17:15:53.117Z,2.30
2018-11-29T17:18:22.676Z,2.30
2018-11-29T17:20:52.088Z,2.30
2018-11-29T17:23:21.541Z,2.30
2018-11-29T17:25:51.223Z,2.30
2018-11-29T17:28:20.456Z,2.20
2018-11-29T17:30:49.918Z,2.10
2018-11-29T17:33:19.187Z,2.20
2018-11-29T17:35:48.744Z,2.20
2018-11-29T17:38:18.257Z,2.20
2018-11-29T17:40:47.806Z,2.20
2018-11-29T17:43:17.395Z,2.20
2018-11-29T17:45:46.782Z,2.20
2018-11-29T17:48:16.512Z,2.20
2018-11-29T17:50:46.220Z,2.10
2018-11-29T17:53:15.646Z,2.10
2018-11-29T17:55:45.208Z,2.10
2018-11-29T17:58:17.991Z,2.10
2018-11-29T18:00:50.291Z,2.10
2018-11-29T18:03:21.655Z,2.10
2018-11-29T18:05:51.438Z,2.10
2018-11-29T18:08:21.073Z,2.10
2018-11-29T18:10:53.485Z,2.00
2018-11-29T18:13:24.954Z,2.00
2018-11-29T18:15:54.522Z,2.00
2018-11-29T18:18:24.027Z,1.90
2018-11-29T18:20:53.563Z,1.90
2018-11-29T18:23:23.087Z,1.90
2018-11-29T18:25:52.434Z,1.90
2018-11-29T18:28:22.015Z,1.90
2018-11-29T18:30:51.479Z,1.90
2018-11-29T18:33:21.184Z,1.90
2018-11-29T18:35:52.494Z,1.90
2018-11-29T18:38:22.297Z,1.90
2018-11-29T18:40:52.275Z,1.90
2018-11-29T18:43:21.804Z,1.90
2018-11-29T18:45:51.053Z,1.90
2018-11-29T18:48:21.243Z,1.90
2018-11-29T18:50:50.638Z,1.90
2018-11-29T18:53:20.936Z,1.90
2018-11-29T18:55:50.425Z,1.90
2018-11-29T18:58:20.244Z,1.90
2018-11-29T19:00:49.624Z,1.90
2018-11-29T19:03:19.548Z,1.90
2018-11-29T19:05:49.020Z,1.90
2018-11-29T19:08:18.671Z,1.90
2018-11-29T19:10:48.530Z,1.90
2018-11-29T19:13:18.240Z,2.00
2018-11-29T19:15:47.673Z,1.90
2018-11-29T19:18:17.298Z,1.90
2018-11-29T19:20:47.152Z,1.90
2018-11-29T19:23:16.739Z,1.90
2018-11-29T19:25:46.360Z,1.90
2018-11-29T19:28:15.981Z,1.90
2018-11-29T19:30:46.059Z,1.90
2018-11-29T19:33:20.796Z,1.90
2018-11-29T19:35:51.309Z,1.90
2018-11-29T19:38:20.967Z,2.00
2018-11-29T19:40:50.331Z,2.00
2018-11-29T19:43:20.038Z,1.90
2018-11-29T19:45:49.406Z,2.00
2018-11-29T19:48:18.757Z,1.90
2018-11-29T19:50:48.602Z,1.90
2018-11-29T19:53:27.170Z,1.90
2018-11-29T19:56:01.363Z,1.90
2018-11-29T19:58:31.321Z,1.90
2018-11-29T20:01:00.870Z,1.90
2018-11-29T20:03:32.440Z,2.00
2018-11-29T20:06:02.480Z,1.90
2018-11-29T20:08:32.210Z,1.90
2018-11-29T20:11:01.808Z,2.00
2018-11-29T20:13:31.168Z,2.00
2018-11-29T20:16:00.739Z,1.90
2018-11-29T20:18:30.258Z,1.90
2018-11-29T20:20:59.995Z,1.90
2018-11-29T20:23:29.550Z,1.80
2018-11-29T20:25:59.053Z,1.80
2018-11-29T20:28:28.492Z,1.80
2018-11-29T20:30:57.884Z,1.80
2018-11-29T20:33:27.697Z,1.80
2018-11-29T20:35:57.262Z,1.70
2018-11-29T20:38:26.896Z,1.80
2018-11-29T20:40:56.291Z,1.80
2018-11-29T20:43:25.967Z,1.80
2018-11-29T20:45:56.691Z,1.80
2018-11-29T20:48:29.344Z,1.80
2018-11-29T20:51:00.094Z,1.70
2018-11-29T20:53:32.572Z,1.70
2018-11-29T20:56:02.485Z,1.70
2018-11-29T20:58:31.959Z,1.70
2018-11-29T21:01:02.485Z,1.70
2018-11-29T21:03:32.822Z,1.70
2018-11-29T21:06:01.148Z,1.70
2018-11-29T21:08:30.972Z,1.60
2018-11-29T21:11:00.449Z,1.60
2018-11-29T21:13:30.163Z,1.60
2018-11-29T21:15:59.899Z,1.60
2018-11-29T21:18:29.907Z,1.70
2018-11-29T21:20:59.524Z,1.70
2018-11-29T21:23:29.232Z,1.70
2018-11-29T21:25:58.940Z,1.70
2018-11-29T21:28:28.445Z,1.60
2018-11-29T21:30:57.831Z,1.60
2018-11-29T21:33:28.543Z,1.60
2018-11-29T21:35:57.917Z,1.60
2018-11-29T21:38:27.518Z,1.60
2018-11-29T21:41:01.635Z,1.50
2018-11-29T21:43:31.188Z,1.50
2018-11-29T21:46:01.014Z,1.50
2018-11-29T21:48:30.650Z,1.50
2018-11-29T21:51:00.252Z,1.50
2018-11-29T21:53:29.752Z,1.50
2018-11-29T21:55:59.232Z,1.50
2018-11-29T21:58:28.604Z,1.50
2018-11-29T22:00:58.219Z,1.40
2018-11-29T22:03:27.954Z,1.40
2018-11-29T22:05:57.269Z,1.40
2018-11-29T22:08:26.923Z,1.40
2018-11-29T22:10:56.688Z,1.40
2018-11-29T22:13:26.068Z,1.40
2018-11-29T22:15:55.305Z,1.40
2018-11-29T22:18:25.802Z,1.40
2018-11-29T22:20:57.204Z,1.40
2018-11-29T22:23:26.690Z,1.40
2018-11-29T22:25:57.736Z,1.40
2018-11-29T22:28:28.332Z,1.40
2018-11-29T22:30:57.653Z,1.40
2018-11-29T22:33:27.026Z,1.40
2018-11-29T22:35:56.498Z,1.40
2018-11-29T22:38:26.079Z,1.30
2018-11-29T22:40:55.657Z,1.30
2018-11-29T22:43:25.222Z,1.30
2018-11-29T22:45:54.854Z,1.30
2018-11-29T22:48:24.368Z,1.30
2018-11-29T22:50:53.819Z,1.30
2018-11-29T22:53:23.577Z,1.30
2018-11-29T22:55:53.035Z,1.30
2018-11-29T22:58:22.468Z,1.30
2018-11-29T23:00:53.489Z,1.30
2018-11-29T23:03:23.192Z,1.20
2018-11-29T23:05:52.927Z,1.20
2018-11-29T23:08:22.357Z,1.20
2018-11-29T23:10:51.676Z,1.10
2018-11-29T23:13:21.297Z,1.10
2018-11-29T23:15:50.643Z,1.10
2018-11-29T23:18:20.294Z,1.10
2018-11-29T23:20:49.898Z,1.10
2018-11-29T23:23:19.428Z,1.10
2018-11-29T23:25:48.882Z,1.10
2018-11-29T23:28:18.519Z,1.20
2018-11-29T23:30:48.105Z,1.20
2018-11-29T23:33:17.629Z,1.10
2018-11-29T23:35:47.244Z,1.10
2018-11-29T23:38:16.727Z,1.10
2018-11-29T23:40:46.274Z,1.10
2018-11-29T23:43:15.922Z,1.10
2018-11-29T23:45:45.406Z,1.10
2018-11-29T23:48:15.028Z,1.10
2018-11-29T23:50:44.438Z,1.10
2018-11-29T23:53:14.048Z,1.10
2018-11-29T23:55:43.493Z,1.10
2018-11-29T23:58:13.050Z,1.10
